sensor_id;sensor_type;location;lat;lon;timestamp;P1;durP1;ratioP1;P2;durP2;ratioP2
22644;SDS011;11489;50.834;6.752;2023-07-13T00:01:36;2.15;;;0.85;;
22644;SDS011;11489;50.834;6.752;2023-07-13T00:04:03;2.38;;;0.85;;
22644;SDS011;11489;50.834;6.752;2023-07-13T00:06:29;1.30;;;0.70;;
22644;SDS011;11489;50.834;6.752;2023-07-13T00:08:58;3.03;;;1.00;;
22644;SDS011;11489;50.834;6.752;2023-07-13T00:11:24;2.80;;;0.88;;
22644;SDS011;11489;50.834;6.752;2023-07-13T00:13:50;3.75;;;0.95;;
22644;SDS011;11489;50.834;6.752;2023-07-13T00:16:16;3.53;;;0.90;;
22644;SDS011;11489;50.834;6.752;2023-07-13T00:18:44;4.00;;;0.95;;
22644;SDS011;11489;50.834;6.752;2023-07-13T00:21:10;5.78;;;0.93;;
22644;SDS011;11489;50.834;6.752;2023-07-13T00:23:37;4.13;;;0.90;;
22644;SDS011;11489;50.834;6.752;2023-07-13T00:26:05;4.32;;;1.23;;
22644;SDS011;11489;50.834;6.752;2023-07-13T00:28:33;1.00;;;0.90;;
22644;SDS011;11489;50.834;6.752;2023-07-13T00:31:00;4.75;;;0.90;;
22644;SDS011;11489;50.834;6.752;2023-07-13T00:33:27;1.80;;;1.00;;
22644;SDS011;11489;50.834;6.752;2023-07-13T00:35:54;4.15;;;0.90;;
22644;SDS011;11489;50.834;6.752;2023-07-13T00:38:21;3.72;;;0.90;;
22644;SDS011;11489;50.834;6.752;2023-07-13T00:40:48;4.30;;;0.90;;
22644;SDS011;11489;50.834;6.752;2023-07-13T00:43:15;2.58;;;0.90;;
22644;SDS011;11489;50.834;6.752;2023-07-13T00:48:12;2.65;;;0.90;;
22644;SDS011;11489;50.834;6.752;2023-07-13T00:50:41;2.33;;;1.25;;
22644;SDS011;11489;50.834;6.752;2023-07-13T00:53:07;2.53;;;1.20;;
22644;SDS011;11489;50.834;6.752;2023-07-13T00:55:34;3.10;;;1.05;;
22644;SDS011;11489;50.834;6.752;2023-07-13T00:58:01;3.08;;;0.98;;
22644;SDS011;11489;50.834;6.752;2023-07-13T01:00:27;4.28;;;0.98;;
22644;SDS011;11489;50.834;6.752;2023-07-13T01:02:56;1.13;;;0.80;;
22644;SDS011;11489;50.834;6.752;2023-07-13T01:05:22;1.13;;;0.80;;
22644;SDS011;11489;50.834;6.752;2023-07-13T01:07:49;2.20;;;0.90;;
22644;SDS011;11489;50.834;6.752;2023-07-13T01:10:17;1.42;;;0.90;;
22644;SDS011;11489;50.834;6.752;2023-07-13T01:12:47;3.78;;;0.98;;
22644;SDS011;11489;50.834;6.752;2023-07-13T01:18:02;3.22;;;0.80;;
22644;SDS011;11489;50.834;6.752;2023-07-13T01:20:30;3.08;;;1.05;;
22644;SDS011;11489;50.834;6.752;2023-07-13T01:22:58;4.07;;;0.90;;
22644;SDS011;11489;50.834;6.752;2023-07-13T01:25:24;1.40;;;1.00;;
22644;SDS011;11489;50.834;6.752;2023-07-13T01:27:50;3.58;;;0.95;;
22644;SDS011;11489;50.834;6.752;2023-07-13T01:30:16;2.45;;;0.80;;
22644;SDS011;11489;50.834;6.752;2023-07-13T01:32:41;1.67;;;0.80;;
22644;SDS011;11489;50.834;6.752;2023-07-13T01:35:07;1.38;;;0.60;;
22644;SDS011;11489;50.834;6.752;2023-07-13T01:37:33;2.28;;;0.85;;
22644;SDS011;11489;50.834;6.752;2023-07-13T01:40:01;1.27;;;0.80;;
22644;SDS011;11489;50.834;6.752;2023-07-13T01:42:29;3.08;;;1.17;;
22644;SDS011;11489;50.834;6.752;2023-07-13T01:44:55;2.70;;;0.95;;
22644;SDS011;11489;50.834;6.752;2023-07-13T01:47:22;6.00;;;0.90;;
22644;SDS011;11489;50.834;6.752;2023-07-13T01:49:48;1.63;;;0.82;;
22644;SDS011;11489;50.834;6.752;2023-07-13T01:52:15;2.67;;;1.08;;
22644;SDS011;11489;50.834;6.752;2023-07-13T01:54:41;3.95;;;0.98;;
22644;SDS011;11489;50.834;6.752;2023-07-13T01:57:07;1.80;;;0.98;;
22644;SDS011;11489;50.834;6.752;2023-07-13T01:59:33;2.97;;;0.80;;
22644;SDS011;11489;50.834;6.752;2023-07-13T02:01:58;3.58;;;0.90;;
22644;SDS011;11489;50.834;6.752;2023-07-13T02:04:24;2.60;;;1.00;;
22644;SDS011;11489;50.834;6.752;2023-07-13T02:06:50;1.63;;;0.90;;
22644;SDS011;11489;50.834;6.752;2023-07-13T02:09:15;1.85;;;1.02;;
22644;SDS011;11489;50.834;6.752;2023-07-13T02:11:41;3.65;;;0.90;;
22644;SDS011;11489;50.834;6.752;2023-07-13T02:14:07;2.58;;;1.00;;
22644;SDS011;11489;50.834;6.752;2023-07-13T02:16:32;2.65;;;1.00;;
22644;SDS011;11489;50.834;6.752;2023-07-13T02:18:58;2.75;;;1.17;;
22644;SDS011;11489;50.834;6.752;2023-07-13T02:21:25;2.42;;;0.70;;
22644;SDS011;11489;50.834;6.752;2023-07-13T02:23:51;4.57;;;1.05;;
22644;SDS011;11489;50.834;6.752;2023-07-13T02:26:17;2.08;;;0.80;;
22644;SDS011;11489;50.834;6.752;2023-07-13T02:28:44;1.92;;;0.80;;
22644;SDS011;11489;50.834;6.752;2023-07-13T02:31:10;3.03;;;1.10;;
22644;SDS011;11489;50.834;6.752;2023-07-13T02:33:37;2.22;;;1.05;;
22644;SDS011;11489;50.834;6.752;2023-07-13T02:36:03;2.45;;;1.02;;
22644;SDS011;11489;50.834;6.752;2023-07-13T02:38:31;6.03;;;0.90;;
22644;SDS011;11489;50.834;6.752;2023-07-13T02:40:59;3.50;;;1.00;;
22644;SDS011;11489;50.834;6.752;2023-07-13T02:43:25;3.28;;;1.13;;
22644;SDS011;11489;50.834;6.752;2023-07-13T02:45:50;1.90;;;0.88;;
22644;SDS011;11489;50.834;6.752;2023-07-13T02:48:16;3.50;;;0.90;;
22644;SDS011;11489;50.834;6.752;2023-07-13T02:50:42;2.45;;;0.90;;
22644;SDS011;11489;50.834;6.752;2023-07-13T02:53:09;5.07;;;1.13;;
22644;SDS011;11489;50.834;6.752;2023-07-13T02:55:36;2.47;;;1.00;;
22644;SDS011;11489;50.834;6.752;2023-07-13T02:58:02;3.55;;;1.00;;
22644;SDS011;11489;50.834;6.752;2023-07-13T03:00:28;4.28;;;1.15;;
22644;SDS011;11489;50.834;6.752;2023-07-13T03:02:54;4.13;;;0.98;;
22644;SDS011;11489;50.834;6.752;2023-07-13T03:05:22;3.47;;;1.10;;
22644;SDS011;11489;50.834;6.752;2023-07-13T03:07:49;2.78;;;1.30;;
22644;SDS011;11489;50.834;6.752;2023-07-13T03:10:14;2.53;;;1.17;;
22644;SDS011;11489;50.834;6.752;2023-07-13T03:12:41;2.35;;;1.25;;
22644;SDS011;11489;50.834;6.752;2023-07-13T03:15:07;3.00;;;0.90;;
22644;SDS011;11489;50.834;6.752;2023-07-13T03:17:33;4.28;;;0.93;;
22644;SDS011;11489;50.834;6.752;2023-07-13T03:19:59;3.63;;;1.23;;
22644;SDS011;11489;50.834;6.752;2023-07-13T03:22:24;3.45;;;1.40;;
22644;SDS011;11489;50.834;6.752;2023-07-13T03:24:50;4.70;;;1.20;;
22644;SDS011;11489;50.834;6.752;2023-07-13T03:27:16;4.38;;;1.20;;
22644;SDS011;11489;50.834;6.752;2023-07-13T03:29:43;5.07;;;1.10;;
22644;SDS011;11489;50.834;6.752;2023-07-13T03:32:08;8.45;;;1.20;;
22644;SDS011;11489;50.834;6.752;2023-07-13T03:34:34;5.35;;;1.10;;
22644;SDS011;11489;50.834;6.752;2023-07-13T03:37:00;2.28;;;1.10;;
22644;SDS011;11489;50.834;6.752;2023-07-13T03:39:26;2.05;;;1.10;;
22644;SDS011;11489;50.834;6.752;2023-07-13T03:41:51;2.67;;;1.10;;
22644;SDS011;11489;50.834;6.752;2023-07-13T03:44:17;2.88;;;1.00;;
22644;SDS011;11489;50.834;6.752;2023-07-13T03:46:43;3.47;;;1.10;;
22644;SDS011;11489;50.834;6.752;2023-07-13T03:49:09;3.25;;;1.10;;
22644;SDS011;11489;50.834;6.752;2023-07-13T03:51:35;3.65;;;1.30;;
22644;SDS011;11489;50.834;6.752;2023-07-13T03:54:01;2.10;;;1.15;;
22644;SDS011;11489;50.834;6.752;2023-07-13T03:56:28;2.78;;;1.02;;
22644;SDS011;11489;50.834;6.752;2023-07-13T03:58:55;3.92;;;1.48;;
22644;SDS011;11489;50.834;6.752;2023-07-13T04:01:22;4.80;;;1.10;;
22644;SDS011;11489;50.834;6.752;2023-07-13T04:03:50;3.40;;;1.20;;
22644;SDS011;11489;50.834;6.752;2023-07-13T04:06:20;1.35;;;1.00;;
22644;SDS011;11489;50.834;6.752;2023-07-13T04:08:52;3.70;;;1.10;;
22644;SDS011;11489;50.834;6.752;2023-07-13T04:11:20;2.70;;;1.10;;
22644;SDS011;11489;50.834;6.752;2023-07-13T04:13:48;5.13;;;1.00;;
22644;SDS011;11489;50.834;6.752;2023-07-13T04:16:15;3.90;;;1.10;;
22644;SDS011;11489;50.834;6.752;2023-07-13T04:18:42;2.40;;;0.90;;
22644;SDS011;11489;50.834;6.752;2023-07-13T04:21:08;2.80;;;1.08;;
22644;SDS011;11489;50.834;6.752;2023-07-13T04:23:34;1.77;;;1.00;;
22644;SDS011;11489;50.834;6.752;2023-07-13T04:26:01;2.65;;;1.25;;
22644;SDS011;11489;50.834;6.752;2023-07-13T04:28:26;3.03;;;1.17;;
22644;SDS011;11489;50.834;6.752;2023-07-13T04:30:52;1.92;;;0.88;;
22644;SDS011;11489;50.834;6.752;2023-07-13T04:33:18;1.98;;;0.90;;
22644;SDS011;11489;50.834;6.752;2023-07-13T04:35:50;3.92;;;0.93;;
22644;SDS011;11489;50.834;6.752;2023-07-13T04:38:25;3.95;;;1.17;;
22644;SDS011;11489;50.834;6.752;2023-07-13T04:40:54;2.58;;;1.02;;
22644;SDS011;11489;50.834;6.752;2023-07-13T04:43:21;3.92;;;1.00;;
22644;SDS011;11489;50.834;6.752;2023-07-13T04:45:48;3.33;;;1.00;;
22644;SDS011;11489;50.834;6.752;2023-07-13T04:48:13;5.40;;;0.90;;
22644;SDS011;11489;50.834;6.752;2023-07-13T04:50:39;3.35;;;1.10;;
22644;SDS011;11489;50.834;6.752;2023-07-13T04:53:05;2.40;;;1.00;;
22644;SDS011;11489;50.834;6.752;2023-07-13T04:55:31;1.85;;;0.90;;
22644;SDS011;11489;50.834;6.752;2023-07-13T04:57:57;2.03;;;0.80;;
22644;SDS011;11489;50.834;6.752;2023-07-13T05:00:26;1.75;;;0.90;;
22644;SDS011;11489;50.834;6.752;2023-07-13T05:02:53;4.95;;;1.10;;
22644;SDS011;11489;50.834;6.752;2023-07-13T05:05:23;2.28;;;1.05;;
22644;SDS011;11489;50.834;6.752;2023-07-13T05:07:50;1.75;;;0.90;;
22644;SDS011;11489;50.834;6.752;2023-07-13T05:10:16;4.53;;;0.98;;
22644;SDS011;11489;50.834;6.752;2023-07-13T05:12:42;4.13;;;1.20;;
22644;SDS011;11489;50.834;6.752;2023-07-13T05:15:10;3.25;;;1.10;;
22644;SDS011;11489;50.834;6.752;2023-07-13T05:17:36;2.92;;;1.08;;
22644;SDS011;11489;50.834;6.752;2023-07-13T05:20:04;2.88;;;1.00;;
22644;SDS011;11489;50.834;6.752;2023-07-13T05:22:31;1.90;;;0.65;;
22644;SDS011;11489;50.834;6.752;2023-07-13T05:24:56;2.67;;;0.75;;
22644;SDS011;11489;50.834;6.752;2023-07-13T05:27:22;1.48;;;0.90;;
22644;SDS011;11489;50.834;6.752;2023-07-13T05:29:48;4.85;;;1.17;;
22644;SDS011;11489;50.834;6.752;2023-07-13T05:32:14;2.92;;;0.80;;
22644;SDS011;11489;50.834;6.752;2023-07-13T05:34:40;3.10;;;0.90;;
22644;SDS011;11489;50.834;6.752;2023-07-13T05:37:07;2.97;;;0.90;;
22644;SDS011;11489;50.834;6.752;2023-07-13T05:39:34;4.55;;;1.00;;
22644;SDS011;11489;50.834;6.752;2023-07-13T05:42:00;3.92;;;1.00;;
22644;SDS011;11489;50.834;6.752;2023-07-13T05:44:26;3.25;;;1.00;;
22644;SDS011;11489;50.834;6.752;2023-07-13T05:46:52;3.17;;;1.23;;
22644;SDS011;11489;50.834;6.752;2023-07-13T05:49:18;3.88;;;1.13;;
22644;SDS011;11489;50.834;6.752;2023-07-13T05:51:44;4.25;;;1.23;;
22644;SDS011;11489;50.834;6.752;2023-07-13T05:54:09;3.42;;;1.30;;
22644;SDS011;11489;50.834;6.752;2023-07-13T05:56:35;4.07;;;1.40;;
22644;SDS011;11489;50.834;6.752;2023-07-13T05:59:00;2.58;;;1.25;;
22644;SDS011;11489;50.834;6.752;2023-07-13T06:01:26;2.38;;;1.00;;
22644;SDS011;11489;50.834;6.752;2023-07-13T06:03:52;3.78;;;1.35;;
22644;SDS011;11489;50.834;6.752;2023-07-13T06:06:17;2.25;;;1.13;;
22644;SDS011;11489;50.834;6.752;2023-07-13T06:08:43;3.40;;;1.15;;
22644;SDS011;11489;50.834;6.752;2023-07-13T06:11:19;6.07;;;1.48;;
22644;SDS011;11489;50.834;6.752;2023-07-13T06:13:47;5.30;;;1.40;;
22644;SDS011;11489;50.834;6.752;2023-07-13T06:16:13;3.00;;;1.48;;
22644;SDS011;11489;50.834;6.752;2023-07-13T06:18:39;3.70;;;1.25;;
22644;SDS011;11489;50.834;6.752;2023-07-13T06:21:06;2.70;;;0.95;;
22644;SDS011;11489;50.834;6.752;2023-07-13T06:23:33;3.72;;;1.13;;
22644;SDS011;11489;50.834;6.752;2023-07-13T06:25:59;3.08;;;1.35;;
22644;SDS011;11489;50.834;6.752;2023-07-13T06:28:24;3.65;;;1.20;;
22644;SDS011;11489;50.834;6.752;2023-07-13T06:30:50;3.05;;;1.23;;
22644;SDS011;11489;50.834;6.752;2023-07-13T06:33:16;3.63;;;1.17;;
22644;SDS011;11489;50.834;6.752;2023-07-13T06:35:42;2.83;;;1.17;;
22644;SDS011;11489;50.834;6.752;2023-07-13T06:38:07;5.43;;;1.30;;
22644;SDS011;11489;50.834;6.752;2023-07-13T06:40:33;2.03;;;1.20;;
22644;SDS011;11489;50.834;6.752;2023-07-13T06:42:59;5.95;;;1.30;;
22644;SDS011;11489;50.834;6.752;2023-07-13T06:45:24;5.03;;;1.15;;
22644;SDS011;11489;50.834;6.752;2023-07-13T06:47:50;3.58;;;1.25;;
22644;SDS011;11489;50.834;6.752;2023-07-13T06:50:16;3.55;;;1.15;;
22644;SDS011;11489;50.834;6.752;2023-07-13T06:52:41;3.13;;;1.30;;
22644;SDS011;11489;50.834;6.752;2023-07-13T06:55:07;4.40;;;1.30;;
22644;SDS011;11489;50.834;6.752;2023-07-13T06:57:33;4.75;;;1.48;;
22644;SDS011;11489;50.834;6.752;2023-07-13T06:59:59;6.78;;;1.48;;
22644;SDS011;11489;50.834;6.752;2023-07-13T07:02:24;2.72;;;1.13;;
22644;SDS011;11489;50.834;6.752;2023-07-13T07:04:50;4.00;;;1.17;;
22644;SDS011;11489;50.834;6.752;2023-07-13T07:07:16;4.07;;;1.63;;
22644;SDS011;11489;50.834;6.752;2023-07-13T07:09:41;6.20;;;1.30;;
22644;SDS011;11489;50.834;6.752;2023-07-13T07:12:07;4.43;;;1.10;;
22644;SDS011;11489;50.834;6.752;2023-07-13T07:14:33;4.53;;;1.50;;
22644;SDS011;11489;50.834;6.752;2023-07-13T07:16:59;2.97;;;1.38;;
22644;SDS011;11489;50.834;6.752;2023-07-13T07:19:27;3.83;;;1.40;;
22644;SDS011;11489;50.834;6.752;2023-07-13T07:21:54;6.00;;;1.55;;
22644;SDS011;11489;50.834;6.752;2023-07-13T07:24:20;6.18;;;1.80;;
22644;SDS011;11489;50.834;6.752;2023-07-13T07:26:46;2.78;;;1.10;;
22644;SDS011;11489;50.834;6.752;2023-07-13T07:29:11;4.10;;;1.42;;
22644;SDS011;11489;50.834;6.752;2023-07-13T07:31:37;4.15;;;1.30;;
22644;SDS011;11489;50.834;6.752;2023-07-13T07:34:02;4.72;;;1.63;;
22644;SDS011;11489;50.834;6.752;2023-07-13T07:36:28;4.70;;;1.60;;
22644;SDS011;11489;50.834;6.752;2023-07-13T07:38:54;3.95;;;1.60;;
22644;SDS011;11489;50.834;6.752;2023-07-13T07:41:19;8.70;;;1.30;;
22644;SDS011;11489;50.834;6.752;2023-07-13T07:43:45;3.67;;;1.35;;
22644;SDS011;11489;50.834;6.752;2023-07-13T07:46:11;3.60;;;1.20;;
22644;SDS011;11489;50.834;6.752;2023-07-13T07:48:36;3.55;;;1.10;;
22644;SDS011;11489;50.834;6.752;2023-07-13T07:51:02;3.65;;;1.13;;
22644;SDS011;11489;50.834;6.752;2023-07-13T07:53:28;2.88;;;0.95;;
22644;SDS011;11489;50.834;6.752;2023-07-13T07:55:53;3.72;;;1.40;;
22644;SDS011;11489;50.834;6.752;2023-07-13T07:58:19;2.65;;;1.30;;
22644;SDS011;11489;50.834;6.752;2023-07-13T08:00:45;2.58;;;1.15;;
22644;SDS011;11489;50.834;6.752;2023-07-13T08:03:10;3.85;;;1.35;;
22644;SDS011;11489;50.834;6.752;2023-07-13T08:05:36;6.90;;;1.65;;
22644;SDS011;11489;50.834;6.752;2023-07-13T08:08:02;3.60;;;1.42;;
22644;SDS011;11489;50.834;6.752;2023-07-13T08:10:28;4.63;;;1.35;;
22644;SDS011;11489;50.834;6.752;2023-07-13T08:12:54;2.90;;;1.10;;
22644;SDS011;11489;50.834;6.752;2023-07-13T08:15:19;3.95;;;1.00;;
22644;SDS011;11489;50.834;6.752;2023-07-13T08:17:46;4.38;;;1.60;;
22644;SDS011;11489;50.834;6.752;2023-07-13T08:20:13;3.60;;;1.10;;
22644;SDS011;11489;50.834;6.752;2023-07-13T08:22:39;2.92;;;1.05;;
22644;SDS011;11489;50.834;6.752;2023-07-13T08:25:06;2.58;;;1.20;;
22644;SDS011;11489;50.834;6.752;2023-07-13T08:27:32;3.05;;;1.20;;
22644;SDS011;11489;50.834;6.752;2023-07-13T08:29:58;2.38;;;1.05;;
22644;SDS011;11489;50.834;6.752;2023-07-13T08:32:24;4.63;;;1.35;;
22644;SDS011;11489;50.834;6.752;2023-07-13T08:34:50;1.90;;;1.00;;
22644;SDS011;11489;50.834;6.752;2023-07-13T08:37:16;3.38;;;1.17;;
22644;SDS011;11489;50.834;6.752;2023-07-13T08:39:44;5.15;;;1.20;;
22644;SDS011;11489;50.834;6.752;2023-07-13T08:50:43;2.25;;;1.02;;
22644;SDS011;11489;50.834;6.752;2023-07-13T08:53:16;3.28;;;1.40;;
22644;SDS011;11489;50.834;6.752;2023-07-13T08:55:43;3.05;;;1.10;;
22644;SDS011;11489;50.834;6.752;2023-07-13T08:58:13;4.60;;;1.33;;
22644;SDS011;11489;50.834;6.752;2023-07-13T09:03:21;3.10;;;1.10;;
22644;SDS011;11489;50.834;6.752;2023-07-13T09:05:51;4.93;;;1.20;;
22644;SDS011;11489;50.834;6.752;2023-07-13T09:08:33;4.50;;;1.23;;
22644;SDS011;11489;50.834;6.752;2023-07-13T09:11:28;6.47;;;1.25;;
22644;SDS011;11489;50.834;6.752;2023-07-13T09:14:06;3.22;;;1.10;;
22644;SDS011;11489;50.834;6.752;2023-07-13T09:17:04;5.28;;;1.77;;
22644;SDS011;11489;50.834;6.752;2023-07-13T09:19:35;4.82;;;1.45;;
22644;SDS011;11489;50.834;6.752;2023-07-13T09:22:02;4.57;;;1.55;;
22644;SDS011;11489;50.834;6.752;2023-07-13T09:24:38;5.85;;;1.42;;
22644;SDS011;11489;50.834;6.752;2023-07-13T09:27:22;4.30;;;1.30;;
22644;SDS011;11489;50.834;6.752;2023-07-13T09:30:09;2.72;;;1.15;;
22644;SDS011;11489;50.834;6.752;2023-07-13T09:32:45;3.03;;;1.20;;
22644;SDS011;11489;50.834;6.752;2023-07-13T09:35:16;2.40;;;1.25;;
22644;SDS011;11489;50.834;6.752;2023-07-13T09:37:44;2.17;;;0.90;;
22644;SDS011;11489;50.834;6.752;2023-07-13T09:40:13;1.80;;;1.00;;
22644;SDS011;11489;50.834;6.752;2023-07-13T09:42:48;1.17;;;0.88;;
22644;SDS011;11489;50.834;6.752;2023-07-13T09:45:17;4.93;;;1.25;;
22644;SDS011;11489;50.834;6.752;2023-07-13T09:47:58;2.83;;;1.00;;
22644;SDS011;11489;50.834;6.752;2023-07-13T09:50:25;3.00;;;1.33;;
22644;SDS011;11489;50.834;6.752;2023-07-13T09:52:51;2.88;;;1.05;;
22644;SDS011;11489;50.834;6.752;2023-07-13T09:55:32;2.03;;;1.15;;
22644;SDS011;11489;50.834;6.752;2023-07-13T09:58:08;2.63;;;1.13;;
22644;SDS011;11489;50.834;6.752;2023-07-13T10:00:36;2.80;;;1.02;;
22644;SDS011;11489;50.834;6.752;2023-07-13T10:03:16;1.42;;;0.90;;
22644;SDS011;11489;50.834;6.752;2023-07-13T10:05:43;2.67;;;1.20;;
22644;SDS011;11489;50.834;6.752;2023-07-13T10:08:17;2.78;;;1.00;;
22644;SDS011;11489;50.834;6.752;2023-07-13T10:10:47;4.05;;;1.17;;
22644;SDS011;11489;50.834;6.752;2023-07-13T10:13:26;1.40;;;0.95;;
22644;SDS011;11489;50.834;6.752;2023-07-13T10:16:00;4.32;;;1.10;;
22644;SDS011;11489;50.834;6.752;2023-07-13T10:18:26;3.70;;;0.98;;
22644;SDS011;11489;50.834;6.752;2023-07-13T10:20:54;2.80;;;1.08;;
22644;SDS011;11489;50.834;6.752;2023-07-13T10:23:33;1.27;;;0.70;;
22644;SDS011;11489;50.834;6.752;2023-07-13T10:26:00;2.20;;;0.90;;
22644;SDS011;11489;50.834;6.752;2023-07-13T10:28:29;2.70;;;1.00;;
22644;SDS011;11489;50.834;6.752;2023-07-13T10:30:58;1.90;;;1.10;;
22644;SDS011;11489;50.834;6.752;2023-07-13T10:33:26;4.45;;;0.90;;
22644;SDS011;11489;50.834;6.752;2023-07-13T10:35:54;1.38;;;0.80;;
22644;SDS011;11489;50.834;6.752;2023-07-13T10:38:37;1.58;;;0.85;;
22644;SDS011;11489;50.834;6.752;2023-07-13T10:41:05;1.75;;;1.02;;
22644;SDS011;11489;50.834;6.752;2023-07-13T10:43:36;1.67;;;0.88;;
22644;SDS011;11489;50.834;6.752;2023-07-13T10:46:07;1.65;;;0.98;;
22644;SDS011;11489;50.834;6.752;2023-07-13T10:48:35;1.67;;;0.95;;
22644;SDS011;11489;50.834;6.752;2023-07-13T10:51:04;3.13;;;1.20;;
22644;SDS011;11489;50.834;6.752;2023-07-13T10:53:33;4.03;;;1.30;;
22644;SDS011;11489;50.834;6.752;2023-07-13T10:56:05;3.30;;;1.30;;
22644;SDS011;11489;50.834;6.752;2023-07-13T10:58:44;4.68;;;1.10;;
22644;SDS011;11489;50.834;6.752;2023-07-13T11:01:20;3.03;;;0.98;;
22644;SDS011;11489;50.834;6.752;2023-07-13T11:03:47;1.42;;;1.00;;
22644;SDS011;11489;50.834;6.752;2023-07-13T11:06:37;2.75;;;1.10;;
22644;SDS011;11489;50.834;6.752;2023-07-13T11:12:26;4.13;;;1.10;;
22644;SDS011;11489;50.834;6.752;2023-07-13T11:22:52;3.53;;;1.00;;
22644;SDS011;11489;50.834;6.752;2023-07-13T11:25:34;2.10;;;1.00;;
22644;SDS011;11489;50.834;6.752;2023-07-13T11:30:47;2.80;;;1.20;;
22644;SDS011;11489;50.834;6.752;2023-07-13T11:36:16;15.02;;;0.93;;
22644;SDS011;11489;50.834;6.752;2023-07-13T11:39:00;1.88;;;0.93;;
22644;SDS011;11489;50.834;6.752;2023-07-13T11:41:43;2.92;;;1.10;;
22644;SDS011;11489;50.834;6.752;2023-07-13T11:44:26;4.57;;;1.10;;
22644;SDS011;11489;50.834;6.752;2023-07-13T11:47:18;2.30;;;1.10;;
22644;SDS011;11489;50.834;6.752;2023-07-13T11:49:53;2.60;;;1.10;;
22644;SDS011;11489;50.834;6.752;2023-07-13T11:52:37;3.38;;;1.10;;
22644;SDS011;11489;50.834;6.752;2023-07-13T11:55:13;6.28;;;1.30;;
22644;SDS011;11489;50.834;6.752;2023-07-13T11:57:49;1.60;;;0.85;;
22644;SDS011;11489;50.834;6.752;2023-07-13T12:00:21;2.65;;;0.95;;
22644;SDS011;11489;50.834;6.752;2023-07-13T12:02:59;3.78;;;1.00;;
22644;SDS011;11489;50.834;6.752;2023-07-13T12:05:30;7.00;;;1.20;;
22644;SDS011;11489;50.834;6.752;2023-07-13T12:10:56;3.20;;;1.10;;
22644;SDS011;11489;50.834;6.752;2023-07-13T12:13:38;2.67;;;1.10;;
22644;SDS011;11489;50.834;6.752;2023-07-13T12:16:46;2.20;;;1.02;;
22644;SDS011;11489;50.834;6.752;2023-07-13T12:19:03;1.50;;;0.95;;
22644;SDS011;11489;50.834;6.752;2023-07-13T12:21:45;2.13;;;1.00;;
22644;SDS011;11489;50.834;6.752;2023-07-13T12:24:18;1.80;;;1.10;;
22644;SDS011;11489;50.834;6.752;2023-07-13T12:26:53;2.28;;;0.82;;
22644;SDS011;11489;50.834;6.752;2023-07-13T12:29:58;2.72;;;0.77;;
22644;SDS011;11489;50.834;6.752;2023-07-13T12:32:30;2.20;;;0.93;;
22644;SDS011;11489;50.834;6.752;2023-07-13T12:35:07;1.92;;;1.20;;
22644;SDS011;11489;50.834;6.752;2023-07-13T12:37:43;2.38;;;0.90;;
22644;SDS011;11489;50.834;6.752;2023-07-13T12:40:18;4.18;;;1.02;;
22644;SDS011;11489;50.834;6.752;2023-07-13T12:42:48;2.25;;;0.93;;
22644;SDS011;11489;50.834;6.752;2023-07-13T12:47:53;2.88;;;1.10;;
22644;SDS011;11489;50.834;6.752;2023-07-13T12:50:24;2.58;;;1.00;;
22644;SDS011;11489;50.834;6.752;2023-07-13T12:52:56;1.65;;;0.80;;
22644;SDS011;11489;50.834;6.752;2023-07-13T12:55:28;1.95;;;0.80;;
22644;SDS011;11489;50.834;6.752;2023-07-13T12:57:58;1.77;;;0.80;;
22644;SDS011;11489;50.834;6.752;2023-07-13T13:00:31;1.42;;;0.85;;
22644;SDS011;11489;50.834;6.752;2023-07-13T13:03:04;3.03;;;0.90;;
22644;SDS011;11489;50.834;6.752;2023-07-13T13:05:46;1.45;;;0.90;;
22644;SDS011;11489;50.834;6.752;2023-07-13T13:08:12;0.80;;;0.80;;
22644;SDS011;11489;50.834;6.752;2023-07-13T13:10:38;2.65;;;1.02;;
22644;SDS011;11489;50.834;6.752;2023-07-13T13:13:04;4.03;;;1.10;;
22644;SDS011;11489;50.834;6.752;2023-07-13T13:15:29;2.60;;;1.00;;
22644;SDS011;11489;50.834;6.752;2023-07-13T13:17:55;2.95;;;0.90;;
22644;SDS011;11489;50.834;6.752;2023-07-13T13:20:24;1.40;;;0.73;;
22644;SDS011;11489;50.834;6.752;2023-07-13T13:22:51;1.50;;;0.82;;
22644;SDS011;11489;50.834;6.752;2023-07-13T13:25:17;4.55;;;1.00;;
22644;SDS011;11489;50.834;6.752;2023-07-13T13:27:44;1.10;;;0.75;;
22644;SDS011;11489;50.834;6.752;2023-07-13T13:30:14;1.58;;;0.88;;
22644;SDS011;11489;50.834;6.752;2023-07-13T13:32:42;1.80;;;0.85;;
22644;SDS011;11489;50.834;6.752;2023-07-13T13:35:14;1.33;;;0.70;;
22644;SDS011;11489;50.834;6.752;2023-07-13T13:37:40;1.83;;;0.82;;
22644;SDS011;11489;50.834;6.752;2023-07-13T13:40:14;3.45;;;1.10;;
22644;SDS011;11489;50.834;6.752;2023-07-13T13:42:41;1.33;;;0.70;;
22644;SDS011;11489;50.834;6.752;2023-07-13T13:45:08;3.38;;;0.90;;
22644;SDS011;11489;50.834;6.752;2023-07-13T13:47:35;1.58;;;0.70;;
22644;SDS011;11489;50.834;6.752;2023-07-13T13:50:09;1.40;;;0.70;;
22644;SDS011;11489;50.834;6.752;2023-07-13T13:52:38;3.70;;;0.85;;
22644;SDS011;11489;50.834;6.752;2023-07-13T13:55:11;2.08;;;0.90;;
22644;SDS011;11489;50.834;6.752;2023-07-13T13:57:41;1.00;;;0.68;;
22644;SDS011;11489;50.834;6.752;2023-07-13T14:00:10;1.58;;;0.77;;
22644;SDS011;11489;50.834;6.752;2023-07-13T14:02:40;1.02;;;0.80;;
22644;SDS011;11489;50.834;6.752;2023-07-13T14:05:11;2.55;;;1.00;;
22644;SDS011;11489;50.834;6.752;2023-07-13T14:07:38;1.25;;;0.80;;
22644;SDS011;11489;50.834;6.752;2023-07-13T14:10:08;1.30;;;0.77;;
22644;SDS011;11489;50.834;6.752;2023-07-13T14:12:43;4.65;;;0.80;;
22644;SDS011;11489;50.834;6.752;2023-07-13T14:15:18;2.35;;;1.00;;
22644;SDS011;11489;50.834;6.752;2023-07-13T14:17:48;4.57;;;1.00;;
22644;SDS011;11489;50.834;6.752;2023-07-13T14:20:15;3.25;;;0.80;;
22644;SDS011;11489;50.834;6.752;2023-07-13T14:22:41;3.38;;;0.80;;
22644;SDS011;11489;50.834;6.752;2023-07-13T14:25:13;2.15;;;0.85;;
22644;SDS011;11489;50.834;6.752;2023-07-13T14:27:40;2.05;;;0.70;;
22644;SDS011;11489;50.834;6.752;2023-07-13T14:30:18;2.03;;;0.95;;
22644;SDS011;11489;50.834;6.752;2023-07-13T14:32:45;2.70;;;0.93;;
22644;SDS011;11489;50.834;6.752;2023-07-13T14:35:13;2.70;;;0.90;;
22644;SDS011;11489;50.834;6.752;2023-07-13T14:37:41;2.00;;;0.80;;
22644;SDS011;11489;50.834;6.752;2023-07-13T14:40:12;1.95;;;1.00;;
22644;SDS011;11489;50.834;6.752;2023-07-13T14:42:42;1.25;;;0.80;;
22644;SDS011;11489;50.834;6.752;2023-07-13T14:45:14;1.85;;;0.60;;
22644;SDS011;11489;50.834;6.752;2023-07-13T14:47:41;1.42;;;0.77;;
22644;SDS011;11489;50.834;6.752;2023-07-13T14:50:19;2.25;;;0.80;;
22644;SDS011;11489;50.834;6.752;2023-07-13T14:52:46;3.20;;;0.90;;
22644;SDS011;11489;50.834;6.752;2023-07-13T14:55:14;3.70;;;1.05;;
22644;SDS011;11489;50.834;6.752;2023-07-13T14:57:41;1.55;;;0.70;;
22644;SDS011;11489;50.834;6.752;2023-07-13T15:00:12;2.45;;;0.80;;
22644;SDS011;11489;50.834;6.752;2023-07-13T15:02:38;2.00;;;0.88;;
22644;SDS011;11489;50.834;6.752;2023-07-13T15:05:14;1.83;;;1.10;;
22644;SDS011;11489;50.834;6.752;2023-07-13T15:07:49;2.22;;;1.02;;
22644;SDS011;11489;50.834;6.752;2023-07-13T15:10:17;1.52;;;0.95;;
22644;SDS011;11489;50.834;6.752;2023-07-13T15:12:44;3.35;;;0.85;;
22644;SDS011;11489;50.834;6.752;2023-07-13T15:15:10;1.23;;;0.80;;
22644;SDS011;11489;50.834;6.752;2023-07-13T15:17:38;3.55;;;1.00;;
22644;SDS011;11489;50.834;6.752;2023-07-13T15:22:40;3.50;;;0.80;;
22644;SDS011;11489;50.834;6.752;2023-07-13T15:25:08;1.23;;;0.80;;
22644;SDS011;11489;50.834;6.752;2023-07-13T15:27:44;1.52;;;1.10;;
22644;SDS011;11489;50.834;6.752;2023-07-13T15:30:11;1.40;;;0.77;;
22644;SDS011;11489;50.834;6.752;2023-07-13T15:32:38;2.67;;;1.25;;
22644;SDS011;11489;50.834;6.752;2023-07-13T15:35:04;2.42;;;1.77;;
22644;SDS011;11489;50.834;6.752;2023-07-13T15:37:37;6.03;;;1.48;;
22644;SDS011;11489;50.834;6.752;2023-07-13T15:40:03;2.78;;;1.52;;